sensor_id;sensor_type;location;lat;lon;timestamp;temperature;humidity
45435;DHT22;31183;47.404;8.500;2023-03-05T00:02:04;5.00;79.60
45435;DHT22;31183;47.404;8.500;2023-03-05T00:04:32;5.00;79.40
45435;DHT22;31183;47.404;8.500;2023-03-05T00:06:59;4.90;79.30
45435;DHT22;31183;47.404;8.500;2023-03-05T00:09:25;5.00;79.80
45435;DHT22;31183;47.404;8.500;2023-03-05T00:11:52;5.00;79.30
45435;DHT22;31183;47.404;8.500;2023-03-05T00:14:18;5.00;79.10
45435;DHT22;31183;47.404;8.500;2023-03-05T00:16:45;5.00;79.60
45435;DHT22;31183;47.404;8.500;2023-03-05T00:19:12;5.00;79.10
45435;DHT22;31183;47.404;8.500;2023-03-05T00:21:40;4.90;79.60
45435;DHT22;31183;47.404;8.500;2023-03-05T00:24:11;5.00;79.30
45435;DHT22;31183;47.404;8.500;2023-03-05T00:26:38;5.00;79.10
45435;DHT22;31183;47.404;8.500;2023-03-05T00:29:06;4.90;79.50
45435;DHT22;31183;47.404;8.500;2023-03-05T00:31:34;4.90;80.00
45435;DHT22;31183;47.404;8.500;2023-03-05T00:34:04;5.00;79.80
45435;DHT22;31183;47.404;8.500;2023-03-05T00:36:31;5.00;79.00
45435;DHT22;31183;47.404;8.500;2023-03-05T00:38:58;5.00;79.50
45435;DHT22;31183;47.404;8.500;2023-03-05T00:41:25;5.00;80.00
45435;DHT22;31183;47.404;8.500;2023-03-05T00:43:52;5.00;79.90
45435;DHT22;31183;47.404;8.500;2023-03-05T00:46:19;5.00;79.30
45435;DHT22;31183;47.404;8.500;2023-03-05T00:48:45;5.00;79.10
45435;DHT22;31183;47.404;8.500;2023-03-05T00:51:12;4.90;79.10
45435;DHT22;31183;47.404;8.500;2023-03-05T00:53:38;4.90;79.60
45435;DHT22;31183;47.404;8.500;2023-03-05T00:56:05;4.90;79.10
45435;DHT22;31183;47.404;8.500;2023-03-05T00:58:32;4.90;80.30
45435;DHT22;31183;47.404;8.500;2023-03-05T01:00:59;4.90;79.30
45435;DHT22;31183;47.404;8.500;2023-03-05T01:03:28;4.90;79.90
45435;DHT22;31183;47.404;8.500;2023-03-05T01:05:54;4.90;80.10
45435;DHT22;31183;47.404;8.500;2023-03-05T01:08:22;4.90;79.90
45435;DHT22;31183;47.404;8.500;2023-03-05T01:10:48;4.90;80.00
45435;DHT22;31183;47.404;8.500;2023-03-05T01:13:15;4.90;80.10
45435;DHT22;31183;47.404;8.500;2023-03-05T01:15:41;5.00;80.20
45435;DHT22;31183;47.404;8.500;2023-03-05T01:18:08;5.00;79.40
45435;DHT22;31183;47.404;8.500;2023-03-05T01:20:35;5.00;80.00
45435;DHT22;31183;47.404;8.500;2023-03-05T01:23:01;5.00;79.90
45435;DHT22;31183;47.404;8.500;2023-03-05T01:25:28;5.00;80.10
45435;DHT22;31183;47.404;8.500;2023-03-05T01:27:55;5.00;79.80
45435;DHT22;31183;47.404;8.500;2023-03-05T01:30:22;5.00;80.30
45435;DHT22;31183;47.404;8.500;2023-03-05T01:32:49;5.00;80.30
45435;DHT22;31183;47.404;8.500;2023-03-05T01:35:19;5.00;80.20
45435;DHT22;31183;47.404;8.500;2023-03-05T01:37:46;5.10;80.50
45435;DHT22;31183;47.404;8.500;2023-03-05T01:40:16;5.10;80.00
45435;DHT22;31183;47.404;8.500;2023-03-05T01:42:47;5.10;79.80
45435;DHT22;31183;47.404;8.500;2023-03-05T01:45:15;5.10;79.70
45435;DHT22;31183;47.404;8.500;2023-03-05T01:47:43;5.00;79.00
45435;DHT22;31183;47.404;8.500;2023-03-05T01:50:13;5.00;80.30
45435;DHT22;31183;47.404;8.500;2023-03-05T01:52:45;5.00;79.70
45435;DHT22;31183;47.404;8.500;2023-03-05T01:55:16;5.00;79.60
45435;DHT22;31183;47.404;8.500;2023-03-05T01:57:45;4.90;79.50
45435;DHT22;31183;47.404;8.500;2023-03-05T02:00:19;4.90;80.60
45435;DHT22;31183;47.404;8.500;2023-03-05T02:02:49;5.00;80.70
45435;DHT22;31183;47.404;8.500;2023-03-05T02:05:26;4.90;80.90
45435;DHT22;31183;47.404;8.500;2023-03-05T02:07:56;5.00;80.80
45435;DHT22;31183;47.404;8.500;2023-03-05T02:10:26;5.00;80.70
45435;DHT22;31183;47.404;8.500;2023-03-05T02:12:56;5.00;80.40
45435;DHT22;31183;47.404;8.500;2023-03-05T02:15:24;5.00;80.30
45435;DHT22;31183;47.404;8.500;2023-03-05T02:17:50;5.10;80.60
45435;DHT22;31183;47.404;8.500;2023-03-05T02:20:26;5.00;79.70
45435;DHT22;31183;47.404;8.500;2023-03-05T02:22:53;5.00;80.70
45435;DHT22;31183;47.404;8.500;2023-03-05T02:25:21;5.10;80.20
45435;DHT22;31183;47.404;8.500;2023-03-05T02:28:25;5.00;79.20
45435;DHT22;31183;47.404;8.500;2023-03-05T02:30:53;5.00;80.60
45435;DHT22;31183;47.404;8.500;2023-03-05T02:33:20;5.00;80.80
45435;DHT22;31183;47.404;8.500;2023-03-05T02:35:47;5.00;80.30
45435;DHT22;31183;47.404;8.500;2023-03-05T02:38:16;4.90;80.50
45435;DHT22;31183;47.404;8.500;2023-03-05T02:40:43;4.90;80.10
45435;DHT22;31183;47.404;8.500;2023-03-05T02:43:09;4.90;80.30
45435;DHT22;31183;47.404;8.500;2023-03-05T02:45:36;4.90;81.00
45435;DHT22;31183;47.404;8.500;2023-03-05T02:48:03;4.90;81.10
45435;DHT22;31183;47.404;8.500;2023-03-05T02:50:30;4.90;81.10
45435;DHT22;31183;47.404;8.500;2023-03-05T02:52:57;4.90;80.00
45435;DHT22;31183;47.404;8.500;2023-03-05T02:55:24;4.90;80.30
45435;DHT22;31183;47.404;8.500;2023-03-05T02:57:51;5.00;81.00
45435;DHT22;31183;47.404;8.500;2023-03-05T03:00:17;4.90;80.30
45435;DHT22;31183;47.404;8.500;2023-03-05T03:02:44;4.90;79.60
45435;DHT22;31183;47.404;8.500;2023-03-05T03:05:11;5.00;80.90
45435;DHT22;31183;47.404;8.500;2023-03-05T03:07:37;5.00;81.00
45435;DHT22;31183;47.404;8.500;2023-03-05T03:10:04;5.00;79.90
45435;DHT22;31183;47.404;8.500;2023-03-05T03:12:38;4.90;79.60
45435;DHT22;31183;47.404;8.500;2023-03-05T03:15:07;4.80;79.80
45435;DHT22;31183;47.404;8.500;2023-03-05T03:17:34;4.80;80.40
45435;DHT22;31183;47.404;8.500;2023-03-05T03:20:03;4.80;80.30
45435;DHT22;31183;47.404;8.500;2023-03-05T03:22:30;4.70;80.80
45435;DHT22;31183;47.404;8.500;2023-03-05T03:24:56;4.70;80.80
45435;DHT22;31183;47.404;8.500;2023-03-05T03:27:23;4.70;80.70
45435;DHT22;31183;47.404;8.500;2023-03-05T03:29:49;4.60;80.40
45435;DHT22;31183;47.404;8.500;2023-03-05T03:32:16;4.60;81.50
45435;DHT22;31183;47.404;8.500;2023-03-05T03:34:43;4.60;80.50
45435;DHT22;31183;47.404;8.500;2023-03-05T03:37:10;4.50;80.70
45435;DHT22;31183;47.404;8.500;2023-03-05T03:39:36;4.50;80.90
45435;DHT22;31183;47.404;8.500;2023-03-05T03:42:03;4.60;80.90
45435;DHT22;31183;47.404;8.500;2023-03-05T03:44:30;4.60;81.00
45435;DHT22;31183;47.404;8.500;2023-03-05T03:46:57;4.50;81.00
45435;DHT22;31183;47.404;8.500;2023-03-05T03:49:24;4.50;81.10
45435;DHT22;31183;47.404;8.500;2023-03-05T03:51:52;4.50;81.20
45435;DHT22;31183;47.404;8.500;2023-03-05T03:54:23;4.50;81.10
45435;DHT22;31183;47.404;8.500;2023-03-05T03:56:50;4.50;81.10
45435;DHT22;31183;47.404;8.500;2023-03-05T03:59:17;4.50;81.10
45435;DHT22;31183;47.404;8.500;2023-03-05T04:01:43;4.50;81.40
45435;DHT22;31183;47.404;8.500;2023-03-05T04:04:11;4.50;81.20
45435;DHT22;31183;47.404;8.500;2023-03-05T04:06:38;4.50;81.50
45435;DHT22;31183;47.404;8.500;2023-03-05T04:09:06;4.40;81.40
45435;DHT22;31183;47.404;8.500;2023-03-05T04:11:34;4.50;82.00
45435;DHT22;31183;47.404;8.500;2023-03-05T04:14:02;4.50;81.50
45435;DHT22;31183;47.404;8.500;2023-03-05T04:16:29;4.40;81.90
45435;DHT22;31183;47.404;8.500;2023-03-05T04:18:56;4.50;81.90
45435;DHT22;31183;47.404;8.500;2023-03-05T04:21:22;4.50;81.50
45435;DHT22;31183;47.404;8.500;2023-03-05T04:23:49;4.50;81.70
45435;DHT22;31183;47.404;8.500;2023-03-05T04:26:15;4.60;82.90
45435;DHT22;31183;47.404;8.500;2023-03-05T04:28:42;4.60;81.20
45435;DHT22;31183;47.404;8.500;2023-03-05T04:31:09;4.60;81.00
45435;DHT22;31183;47.404;8.500;2023-03-05T04:33:35;4.50;81.30
45435;DHT22;31183;47.404;8.500;2023-03-05T04:36:02;4.50;82.00
45435;DHT22;31183;47.404;8.500;2023-03-05T04:38:28;4.50;81.70
45435;DHT22;31183;47.404;8.500;2023-03-05T04:40:55;4.50;81.80
45435;DHT22;31183;47.404;8.500;2023-03-05T04:43:22;4.50;81.40
45435;DHT22;31183;47.404;8.500;2023-03-05T04:45:48;4.50;81.40
45435;DHT22;31183;47.404;8.500;2023-03-05T04:48:15;4.50;81.80
45435;DHT22;31183;47.404;8.500;2023-03-05T04:50:42;4.50;81.80
45435;DHT22;31183;47.404;8.500;2023-03-05T04:53:08;4.40;81.30
45435;DHT22;31183;47.404;8.500;2023-03-05T04:55:35;4.40;81.50
45435;DHT22;31183;47.404;8.500;2023-03-05T04:58:02;4.40;81.40
45435;DHT22;31183;47.404;8.500;2023-03-05T05:00:29;4.30;81.90
45435;DHT22;31183;47.404;8.500;2023-03-05T05:02:55;4.30;82.10
45435;DHT22;31183;47.404;8.500;2023-03-05T05:05:24;4.40;81.80
45435;DHT22;31183;47.404;8.500;2023-03-05T05:07:57;4.30;81.60
45435;DHT22;31183;47.404;8.500;2023-03-05T05:10:24;4.30;82.00
45435;DHT22;31183;47.404;8.500;2023-03-05T05:12:52;4.30;82.20
45435;DHT22;31183;47.404;8.500;2023-03-05T05:15:19;4.30;81.70
45435;DHT22;31183;47.404;8.500;2023-03-05T05:17:46;4.30;82.10
45435;DHT22;31183;47.404;8.500;2023-03-05T05:20:14;4.40;81.80
45435;DHT22;31183;47.404;8.500;2023-03-05T05:22:41;4.30;81.50
45435;DHT22;31183;47.404;8.500;2023-03-05T05:25:09;4.30;81.60
45435;DHT22;31183;47.404;8.500;2023-03-05T05:27:37;4.30;81.90
45435;DHT22;31183;47.404;8.500;2023-03-05T05:30:04;4.40;82.80
45435;DHT22;31183;47.404;8.500;2023-03-05T05:32:31;4.40;82.00
45435;DHT22;31183;47.404;8.500;2023-03-05T05:34:58;4.50;81.90
45435;DHT22;31183;47.404;8.500;2023-03-05T05:37:25;4.40;81.70
45435;DHT22;31183;47.404;8.500;2023-03-05T05:39:52;4.40;81.70
45435;DHT22;31183;47.404;8.500;2023-03-05T05:42:21;4.40;82.10
45435;DHT22;31183;47.404;8.500;2023-03-05T05:44:48;4.30;81.90
45435;DHT22;31183;47.404;8.500;2023-03-05T05:47:16;4.30;82.80
45435;DHT22;31183;47.404;8.500;2023-03-05T05:49:43;4.30;82.10
45435;DHT22;31183;47.404;8.500;2023-03-05T05:52:10;4.30;82.30
45435;DHT22;31183;47.404;8.500;2023-03-05T05:54:37;4.40;82.20
45435;DHT22;31183;47.404;8.500;2023-03-05T05:57:03;4.40;82.00
45435;DHT22;31183;47.404;8.500;2023-03-05T05:59:30;4.30;82.00
45435;DHT22;31183;47.404;8.500;2023-03-05T06:01:56;4.30;82.30
45435;DHT22;31183;47.404;8.500;2023-03-05T06:04:23;4.30;82.00
45435;DHT22;31183;47.404;8.500;2023-03-05T06:06:50;4.40;82.20
45435;DHT22;31183;47.404;8.500;2023-03-05T06:09:16;4.40;81.70
45435;DHT22;31183;47.404;8.500;2023-03-05T06:11:43;4.40;82.30
45435;DHT22;31183;47.404;8.500;2023-03-05T06:14:11;4.40;82.60
45435;DHT22;31183;47.404;8.500;2023-03-05T06:16:38;4.40;81.60
45435;DHT22;31183;47.404;8.500;2023-03-05T06:19:05;4.40;82.30
45435;DHT22;31183;47.404;8.500;2023-03-05T06:21:34;4.40;82.20
45435;DHT22;31183;47.404;8.500;2023-03-05T06:24:00;4.40;82.20
45435;DHT22;31183;47.404;8.500;2023-03-05T06:26:27;4.40;82.40
45435;DHT22;31183;47.404;8.500;2023-03-05T06:28:53;4.40;82.30
45435;DHT22;31183;47.404;8.500;2023-03-05T06:31:23;4.40;81.80
45435;DHT22;31183;47.404;8.500;2023-03-05T06:33:55;4.40;82.00
45435;DHT22;31183;47.404;8.500;2023-03-05T06:36:23;4.40;82.30
45435;DHT22;31183;47.404;8.500;2023-03-05T06:38:50;4.30;82.60
45435;DHT22;31183;47.404;8.500;2023-03-05T06:41:29;4.40;82.50
45435;DHT22;31183;47.404;8.500;2023-03-05T06:43:57;4.30;82.40
45435;DHT22;31183;47.404;8.500;2023-03-05T06:46:26;4.30;82.50
45435;DHT22;31183;47.404;8.500;2023-03-05T06:48:58;4.30;82.40
45435;DHT22;31183;47.404;8.500;2023-03-05T06:51:26;4.30;83.20
45435;DHT22;31183;47.404;8.500;2023-03-05T06:53:54;4.40;83.70
45435;DHT22;31183;47.404;8.500;2023-03-05T06:56:22;4.40;82.50
45435;DHT22;31183;47.404;8.500;2023-03-05T06:58:50;4.40;82.20
45435;DHT22;31183;47.404;8.500;2023-03-05T07:01:18;4.40;82.30
45435;DHT22;31183;47.404;8.500;2023-03-05T07:03:49;4.40;82.10
45435;DHT22;31183;47.404;8.500;2023-03-05T07:06:16;4.40;82.20
45435;DHT22;31183;47.404;8.500;2023-03-05T07:08:42;4.40;82.10
45435;DHT22;31183;47.404;8.500;2023-03-05T07:11:15;4.40;82.20
45435;DHT22;31183;47.404;8.500;2023-03-05T07:13:41;4.40;82.10
45435;DHT22;31183;47.404;8.500;2023-03-05T07:16:12;4.50;82.20
45435;DHT22;31183;47.404;8.500;2023-03-05T07:18:39;4.60;82.00
45435;DHT22;31183;47.404;8.500;2023-03-05T07:21:07;4.60;82.10
45435;DHT22;31183;47.404;8.500;2023-03-05T07:23:35;4.60;81.70
45435;DHT22;31183;47.404;8.500;2023-03-05T07:26:03;4.70;81.00
45435;DHT22;31183;47.404;8.500;2023-03-05T07:28:30;4.60;80.80
45435;DHT22;31183;47.404;8.500;2023-03-05T07:30:59;4.60;81.20
45435;DHT22;31183;47.404;8.500;2023-03-05T07:33:26;4.70;82.60
45435;DHT22;31183;47.404;8.500;2023-03-05T07:35:53;4.70;83.70
45435;DHT22;31183;47.404;8.500;2023-03-05T07:38:20;4.80;81.30
45435;DHT22;31183;47.404;8.500;2023-03-05T07:40:47;4.80;81.80
45435;DHT22;31183;47.404;8.500;2023-03-05T07:43:14;4.80;81.50
45435;DHT22;31183;47.404;8.500;2023-03-05T07:45:42;4.90;82.10
45435;DHT22;31183;47.404;8.500;2023-03-05T07:48:15;4.90;81.40
45435;DHT22;31183;47.404;8.500;2023-03-05T07:50:42;5.00;81.00
45435;DHT22;31183;47.404;8.500;2023-03-05T07:53:09;5.10;80.70
45435;DHT22;31183;47.404;8.500;2023-03-05T07:55:43;5.20;81.20
45435;DHT22;31183;47.404;8.500;2023-03-05T07:58:11;5.30;79.80
45435;DHT22;31183;47.404;8.500;2023-03-05T08:00:38;5.40;80.10
45435;DHT22;31183;47.404;8.500;2023-03-05T08:03:05;5.50;79.00
45435;DHT22;31183;47.404;8.500;2023-03-05T08:05:32;5.50;78.40
45435;DHT22;31183;47.404;8.500;2023-03-05T08:07:59;5.50;78.70
45435;DHT22;31183;47.404;8.500;2023-03-05T08:10:25;5.60;78.50
45435;DHT22;31183;47.404;8.500;2023-03-05T08:12:52;5.70;78.60
45435;DHT22;31183;47.404;8.500;2023-03-05T08:15:19;5.70;77.90
45435;DHT22;31183;47.404;8.500;2023-03-05T08:17:45;5.70;78.30
45435;DHT22;31183;47.404;8.500;2023-03-05T08:20:12;5.80;78.20
45435;DHT22;31183;47.404;8.500;2023-03-05T08:22:39;5.90;78.00
45435;DHT22;31183;47.404;8.500;2023-03-05T08:25:06;5.90;78.50
45435;DHT22;31183;47.404;8.500;2023-03-05T08:27:37;6.00;77.60
45435;DHT22;31183;47.404;8.500;2023-03-05T08:30:05;6.00;77.30
45435;DHT22;31183;47.404;8.500;2023-03-05T08:32:32;6.20;77.60
45435;DHT22;31183;47.404;8.500;2023-03-05T08:34:59;6.30;76.50
45435;DHT22;31183;47.404;8.500;2023-03-05T08:37:26;6.40;75.40
45435;DHT22;31183;47.404;8.500;2023-03-05T08:39:53;6.60;75.80
45435;DHT22;31183;47.404;8.500;2023-03-05T08:42:22;6.70;75.80
45435;DHT22;31183;47.404;8.500;2023-03-05T08:44:48;6.80;74.50
45435;DHT22;31183;47.404;8.500;2023-03-05T08:47:16;6.70;74.80
45435;DHT22;31183;47.404;8.500;2023-03-05T08:49:44;6.70;74.10
45435;DHT22;31183;47.404;8.500;2023-03-05T08:52:10;6.70;74.50
45435;DHT22;31183;47.404;8.500;2023-03-05T08:54:37;6.80;75.00
45435;DHT22;31183;47.404;8.500;2023-03-05T08:57:04;6.90;74.10
45435;DHT22;31183;47.404;8.500;2023-03-05T08:59:30;7.10;75.90
45435;DHT22;31183;47.404;8.500;2023-03-05T09:02:01;7.30;75.20
45435;DHT22;31183;47.404;8.500;2023-03-05T09:04:28;7.40;73.10
45435;DHT22;31183;47.404;8.500;2023-03-05T09:06:56;7.40;71.90
45435;DHT22;31183;47.404;8.500;2023-03-05T09:09:23;7.20;72.80
45435;DHT22;31183;47.404;8.500;2023-03-05T09:11:50;7.10;72.50
45435;DHT22;31183;47.404;8.500;2023-03-05T09:14:17;7.10;72.70
45435;DHT22;31183;47.404;8.500;2023-03-05T09:16:44;7.10;72.30
45435;DHT22;31183;47.404;8.500;2023-03-05T09:19:10;7.10;72.40
45435;DHT22;31183;47.404;8.500;2023-03-05T09:21:38;7.10;72.10
45435;DHT22;31183;47.404;8.500;2023-03-05T09:24:04;7.10;72.50
45435;DHT22;31183;47.404;8.500;2023-03-05T09:26:31;7.40;73.00
45435;DHT22;31183;47.404;8.500;2023-03-05T09:28:58;7.60;72.40
45435;DHT22;31183;47.404;8.500;2023-03-05T09:31:24;7.90;72.50
45435;DHT22;31183;47.404;8.500;2023-03-05T09:33:51;8.10;71.20
45435;DHT22;31183;47.404;8.500;2023-03-05T09:36:21;8.30;71.10
45435;DHT22;31183;47.404;8.500;2023-03-05T09:38:48;8.50;69.10
45435;DHT22;31183;47.404;8.500;2023-03-05T09:47:16;9.70;67.50
45435;DHT22;31183;47.404;8.500;2023-03-05T09:49:58;10.00;67.10
45435;DHT22;31183;47.404;8.500;2023-03-05T09:52:55;10.60;66.00
45435;DHT22;31183;47.404;8.500;2023-03-05T09:55:39;11.60;63.00
45435;DHT22;31183;47.404;8.500;2023-03-05T09:58:17;12.00;59.00
45435;DHT22;31183;47.404;8.500;2023-03-05T10:00:53;12.40;60.40
45435;DHT22;31183;47.404;8.500;2023-03-05T10:03:53;13.10;58.40
45435;DHT22;31183;47.404;8.500;2023-03-05T10:06:26;13.60;57.90
45435;DHT22;31183;47.404;8.500;2023-03-05T10:09:02;13.40;56.00
45435;DHT22;31183;47.404;8.500;2023-03-05T10:11:33;13.00;57.60
45435;DHT22;31183;47.404;8.500;2023-03-05T10:14:03;12.60;57.50
45435;DHT22;31183;47.404;8.500;2023-03-05T10:16:51;12.00;57.90
45435;DHT22;31183;47.404;8.500;2023-03-05T10:22:31;11.20;59.10
45435;DHT22;31183;47.404;8.500;2023-03-05T10:25:21;10.80;60.60
45435;DHT22;31183;47.404;8.500;2023-03-05T10:33:26;10.60;61.10
45435;DHT22;31183;47.404;8.500;2023-03-05T10:36:34;10.40;62.30
45435;DHT22;31183;47.404;8.500;2023-03-05T10:44:50;11.40;61.50
45435;DHT22;31183;47.404;8.500;2023-03-05T10:47:38;11.50;60.20
45435;DHT22;31183;47.404;8.500;2023-03-05T10:50:29;11.20;60.20
45435;DHT22;31183;47.404;8.500;2023-03-05T10:55:33;10.20;62.20
45435;DHT22;31183;47.404;8.500;2023-03-05T10:58:07;10.20;63.70
45435;DHT22;31183;47.404;8.500;2023-03-05T11:00:35;10.30;63.40
45435;DHT22;31183;47.404;8.500;2023-03-05T11:03:05;10.20;62.60
45435;DHT22;31183;47.404;8.500;2023-03-05T11:05:59;10.20;63.30
45435;DHT22;31183;47.404;8.500;2023-03-05T11:16:22;10.30;63.80
45435;DHT22;31183;47.404;8.500;2023-03-05T11:19:14;10.30;63.60
45435;DHT22;31183;47.404;8.500;2023-03-05T11:21:42;10.20;62.50
45435;DHT22;31183;47.404;8.500;2023-03-05T11:24:15;10.20;63.80
45435;DHT22;31183;47.404;8.500;2023-03-05T11:26:48;10.10;63.40
45435;DHT22;31183;47.404;8.500;2023-03-05T11:29:24;10.00;64.30
45435;DHT22;31183;47.404;8.500;2023-03-05T11:31:52;9.90;64.00
45435;DHT22;31183;47.404;8.500;2023-03-05T11:39:20;10.00;65.20
45435;DHT22;31183;47.404;8.500;2023-03-05T11:41:58;10.00;64.30
45435;DHT22;31183;47.404;8.500;2023-03-05T11:44:37;9.90;63.70
45435;DHT22;31183;47.404;8.500;2023-03-05T11:47:38;10.00;64.10
45435;DHT22;31183;47.404;8.500;2023-03-05T11:50:27;10.00;62.80
45435;DHT22;31183;47.404;8.500;2023-03-05T11:53:04;10.10;62.70
45435;DHT22;31183;47.404;8.500;2023-03-05T11:55:43;10.10;63.50
45435;DHT22;31183;47.404;8.500;2023-03-05T11:58:34;10.20;63.40
45435;DHT22;31183;47.404;8.500;2023-03-05T12:01:16;10.20;61.50
45435;DHT22;31183;47.404;8.500;2023-03-05T12:03:43;10.10;61.50
45435;DHT22;31183;47.404;8.500;2023-03-05T12:06:28;9.80;61.60
45435;DHT22;31183;47.404;8.500;2023-03-05T12:08:57;9.70;62.60
45435;DHT22;31183;47.404;8.500;2023-03-05T12:11:27;9.40;64.20
45435;DHT22;31183;47.404;8.500;2023-03-05T12:16:38;9.50;64.70
45435;DHT22;31183;47.404;8.500;2023-03-05T12:19:34;9.60;64.40
45435;DHT22;31183;47.404;8.500;2023-03-05T12:22:20;9.70;62.70
45435;DHT22;31183;47.404;8.500;2023-03-05T12:24:47;9.60;64.00
45435;DHT22;31183;47.404;8.500;2023-03-05T12:27:16;9.60;64.20
45435;DHT22;31183;47.404;8.500;2023-03-05T12:29:56;9.70;62.70
45435;DHT22;31183;47.404;8.500;2023-03-05T12:35:01;9.50;61.90
45435;DHT22;31183;47.404;8.500;2023-03-05T12:47:39;10.00;62.90
45435;DHT22;31183;47.404;8.500;2023-03-05T13:01:30;10.10;60.00
45435;DHT22;31183;47.404;8.500;2023-03-05T13:04:04;10.00;59.20
45435;DHT22;31183;47.404;8.500;2023-03-05T13:06:37;9.90;61.40
45435;DHT22;31183;47.404;8.500;2023-03-05T13:09:23;9.90;61.90
45435;DHT22;31183;47.404;8.500;2023-03-05T13:11:51;9.90;61.40
45435;DHT22;31183;47.404;8.500;2023-03-05T13:16:54;9.70;62.40
45435;DHT22;31183;47.404;8.500;2023-03-05T13:19:21;9.70;62.10
45435;DHT22;31183;47.404;8.500;2023-03-05T13:22:00;9.60;61.50
45435;DHT22;31183;47.404;8.500;2023-03-05T13:24:27;9.30;61.50
45435;DHT22;31183;47.404;8.500;2023-03-05T13:26:55;9.00;61.80
45435;DHT22;31183;47.404;8.500;2023-03-05T13:29:24;8.80;62.90
45435;DHT22;31183;47.404;8.500;2023-03-05T13:31:58;8.80;64.20
45435;DHT22;31183;47.404;8.500;2023-03-05T13:34:35;8.80;64.20
45435;DHT22;31183;47.404;8.500;2023-03-05T13:37:23;8.90;65.00
45435;DHT22;31183;47.404;8.500;2023-03-05T13:39:59;9.00;64.30
45435;DHT22;31183;47.404;8.500;2023-03-05T13:42:31;9.10;64.00
45435;DHT22;31183;47.404;8.500;2023-03-05T13:47:30;9.20;63.50
45435;DHT22;31183;47.404;8.500;2023-03-05T13:49:59;9.10;63.80
45435;DHT22;31183;47.404;8.500;2023-03-05T13:52:28;9.00;63.00
45435;DHT22;31183;47.404;8.500;2023-03-05T13:54:57;9.00;63.80
45435;DHT22;31183;47.404;8.500;2023-03-05T14:00:27;8.90;63.40
45435;DHT22;31183;47.404;8.500;2023-03-05T14:02:55;8.80;63.90
45435;DHT22;31183;47.404;8.500;2023-03-05T14:05:25;8.70;63.60
45435;DHT22;31183;47.404;8.500;2023-03-05T14:07:52;8.60;64.30
45435;DHT22;31183;47.404;8.500;2023-03-05T14:12:55;8.60;63.80
45435;DHT22;31183;47.404;8.500;2023-03-05T14:15:33;8.60;64.10
45435;DHT22;31183;47.404;8.500;2023-03-05T14:28:50;8.50;64.00
45435;DHT22;31183;47.404;8.500;2023-03-05T14:31:18;8.40;64.20
45435;DHT22;31183;47.404;8.500;2023-03-05T14:33:45;8.40;65.00
45435;DHT22;31183;47.404;8.500;2023-03-05T14:36:12;8.40;65.30
45435;DHT22;31183;47.404;8.500;2023-03-05T14:38:40;8.40;65.10
45435;DHT22;31183;47.404;8.500;2023-03-05T14:44:15;8.50;65.20
45435;DHT22;31183;47.404;8.500;2023-03-05T14:46:47;8.50;65.50
45435;DHT22;31183;47.404;8.500;2023-03-05T14:49:14;8.60;65.60
45435;DHT22;31183;47.404;8.500;2023-03-05T14:51:43;8.60;65.30
45435;DHT22;31183;47.404;8.500;2023-03-05T14:54:22;8.70;65.30
45435;DHT22;31183;47.404;8.500;2023-03-05T14:56:49;8.70;64.60
45435;DHT22;31183;47.404;8.500;2023-03-05T14:59:17;8.70;64.90
45435;DHT22;31183;47.404;8.500;2023-03-05T15:01:44;8.70;65.30
45435;DHT22;31183;47.404;8.500;2023-03-05T15:04:11;8.70;64.20
45435;DHT22;31183;47.404;8.500;2023-03-05T15:06:39;8.60;65.30
45435;DHT22;31183;47.404;8.500;2023-03-05T15:09:06;8.60;65.90
45435;DHT22;31183;47.404;8.500;2023-03-05T15:11:33;8.60;64.00
45435;DHT22;31183;47.404;8.500;2023-03-05T15:14:00;8.50;64.60
45435;DHT22;31183;47.404;8.500;2023-03-05T15:16:26;8.50;64.90
45435;DHT22;31183;47.404;8.500;2023-03-05T15:18:53;8.40;64.20
45435;DHT22;31183;47.404;8.500;2023-03-05T15:21:19;8.30;65.00
45435;DHT22;31183;47.404;8.500;2023-03-05T15:23:46;8.20;65.30
45435;DHT22;31183;47.404;8.500;2023-03-05T15:26:13;8.20;65.60
45435;DHT22;31183;47.404;8.500;2023-03-05T15:28:41;8.20;65.40
45435;DHT22;31183;47.404;8.500;2023-03-05T15:31:08;8.20;65.40
45435;DHT22;31183;47.404;8.500;2023-03-05T15:33:35;8.20;65.50
45435;DHT22;31183;47.404;8.500;2023-03-05T15:36:02;8.30;65.90
45435;DHT22;31183;47.404;8.500;2023-03-05T15:38:29;8.20;65.50
45435;DHT22;31183;47.404;8.500;2023-03-05T15:40:56;8.20;65.00
45435;DHT22;31183;47.404;8.500;2023-03-05T15:43:24;8.20;65.10
45435;DHT22;31183;47.404;8.500;2023-03-05T15:45:51;8.10;64.60
45435;DHT22;31183;47.404;8.500;2023-03-05T15:48:17;8.10;65.20
45435;DHT22;31183;47.404;8.500;2023-03-05T15:50:44;8.10;65.20
45435;DHT22;31183;47.404;8.500;2023-03-05T15:53:13;8.10;65.20
45435;DHT22;31183;47.404;8.500;2023-03-05T15:55:42;8.10;65.40
45435;DHT22;31183;47.404;8.500;2023-03-05T15:58:13;8.10;65.80
45435;DHT22;31183;47.404;8.500;2023-03-05T16:00:41;8.20;65.80
45435;DHT22;31183;47.404;8.500;2023-03-05T16:03:07;8.20;65.40
45435;DHT22;31183;47.404;8.500;2023-03-05T16:05:35;8.30;65.70
45435;DHT22;31183;47.404;8.500;2023-03-05T16:08:03;8.30;64.50
45435;DHT22;31183;47.404;8.500;2023-03-05T16:10:30;8.20;63.70
45435;DHT22;31183;47.404;8.500;2023-03-05T16:13:02;8.20;64.00
45435;DHT22;31183;47.404;8.500;2023-03-05T16:15:30;8.20;64.00
45435;DHT22;31183;47.404;8.500;2023-03-05T16:18:01;8.20;64.90
45435;DHT22;31183;47.404;8.500;2023-03-05T16:20:28;8.20;65.10
45435;DHT22;31183;47.404;8.500;2023-03-05T16:22:55;8.20;65.10
45435;DHT22;31183;47.404;8.500;2023-03-05T16:25:21;8.20;65.70
45435;DHT22;31183;47.404;8.500;2023-03-05T16:27:48;8.20;65.70
45435;DHT22;31183;47.404;8.500;2023-03-05T16:30:15;8.20;65.90
45435;DHT22;31183;47.404;8.500;2023-03-05T16:32:43;8.20;65.80
45435;DHT22;31183;47.404;8.500;2023-03-05T16:35:09;8.20;66.40
45435;DHT22;31183;47.404;8.500;2023-03-05T16:37:38;8.20;66.30
45435;DHT22;31183;47.404;8.500;2023-03-05T16:40:11;8.20;66.80
45435;DHT22;31183;47.404;8.500;2023-03-05T16:42:38;8.20;66.60
45435;DHT22;31183;47.404;8.500;2023-03-05T16:45:06;8.20;66.70
45435;DHT22;31183;47.404;8.500;2023-03-05T16:47:33;8.10;66.10
45435;DHT22;31183;47.404;8.500;2023-03-05T16:50:00;8.10;66.20
45435;DHT22;31183;47.404;8.500;2023-03-05T16:52:27;8.10;66.40
45435;DHT22;31183;47.404;8.500;2023-03-05T16:54:54;7.90;65.50
45435;DHT22;31183;47.404;8.500;2023-03-05T16:57:21;7.90;66.60
45435;DHT22;31183;47.404;8.500;2023-03-05T16:59:51;7.80;66.50
45435;DHT22;31183;47.404;8.500;2023-03-05T17:02:18;7.80;67.00
45435;DHT22;31183;47.404;8.500;2023-03-05T17:04:44;7.80;67.40
45435;DHT22;31183;47.404;8.500;2023-03-05T17:07:11;7.70;66.40
45435;DHT22;31183;47.404;8.500;2023-03-05T17:09:38;7.70;66.50
45435;DHT22;31183;47.404;8.500;2023-03-05T17:12:05;7.60;67.40
45435;DHT22;31183;47.404;8.500;2023-03-05T17:14:31;7.60;67.70
45435;DHT22;31183;47.404;8.500;2023-03-05T17:16:58;7.70;68.10
45435;DHT22;31183;47.404;8.500;2023-03-05T17:19:26;7.70;68.20
45435;DHT22;31183;47.404;8.500;2023-03-05T17:21:53;7.70;67.80
45435;DHT22;31183;47.404;8.500;2023-03-05T17:24:19;7.70;67.80
45435;DHT22;31183;47.404;8.500;2023-03-05T17:26:48;7.70;67.70